createdAt,value
2018-05-18T00:02:03.982Z,65.80
2018-05-18T00:07:07.209Z,65.60
2018-05-18T00:17:37.585Z,65.60
2018-05-18T00:22:40.047Z,65.70
2018-05-18T00:27:43.274Z,65.70
2018-05-18T00:32:45.728Z,65.60
2018-05-18T00:38:07.968Z,65.80
2018-05-18T00:43:10.446Z,65.70
2018-05-18T00:48:12.977Z,65.70
2018-05-18T00:53:15.477Z,66.00
2018-05-18T00:58:17.922Z,66.00
2018-05-18T01:03:20.373Z,66.00
2018-05-18T01:08:23.602Z,66.10
2018-05-18T01:13:26.167Z,66.10
2018-05-18T01:18:30.115Z,66.30
2018-05-18T01:23:32.561Z,66.30
2018-05-18T01:28:35.024Z,66.40
2018-05-18T01:33:37.475Z,66.40
2018-05-18T01:38:40.706Z,66.60
2018-05-18T01:43:43.153Z,66.50
2018-05-18T01:48:45.610Z,66.40
2018-05-18T01:54:06.303Z,66.50
2018-05-18T01:59:09.517Z,66.50
2018-05-18T02:04:12.021Z,65.60
2018-05-18T02:09:14.489Z,65.80
2018-05-18T02:14:17.703Z,66.10
2018-05-18T02:19:29.829Z,65.40
2018-05-18T02:24:33.133Z,65.90
2018-05-18T02:29:40.233Z,66.00
2018-05-18T02:34:43.471Z,65.90
2018-05-18T02:39:45.921Z,65.80
2018-05-18T02:44:48.445Z,66.20
2018-05-18T02:49:51.664Z,67.00
2018-05-18T02:54:54.114Z,66.70
2018-05-18T02:59:56.559Z,67.10
2018-05-18T03:04:59.006Z,68.10
2018-05-18T03:10:01.462Z,67.30
2018-05-18T03:15:08.127Z,67.30
2018-05-18T03:20:10.613Z,67.10
2018-05-18T03:25:13.062Z,67.10
2018-05-18T03:30:15.514Z,67.00
2018-05-18T03:35:17.989Z,67.00
2018-05-18T03:40:20.529Z,67.30
2018-05-18T03:45:36.456Z,67.20
2018-05-18T03:50:38.921Z,67.10
2018-05-18T03:55:41.456Z,66.80
2018-05-18T04:00:43.910Z,66.90
2018-05-18T04:11:12.083Z,67.30
2018-05-18T04:16:15.316Z,67.20
2018-05-18T04:21:17.769Z,67.00
2018-05-18T04:26:20.241Z,67.30
2018-05-18T04:31:22.715Z,67.50
2018-05-18T04:36:25.174Z,67.40
2018-05-18T04:41:28.394Z,67.90
2018-05-18T04:46:30.918Z,67.70
2018-05-18T04:51:33.368Z,67.70
2018-05-18T04:56:36.580Z,67.90
2018-05-18T05:01:39.030Z,67.70
2018-05-18T05:06:41.493Z,67.80
2018-05-18T05:11:43.976Z,67.60
2018-05-18T05:16:46.461Z,67.20
2018-05-18T05:21:49.110Z,66.90
2018-05-18T05:26:51.576Z,67.00
2018-05-18T05:31:54.023Z,67.30
2018-05-18T05:36:57.241Z,67.10
2018-05-18T05:41:59.802Z,67.20
2018-05-18T05:47:02.252Z,66.90
2018-05-18T05:52:04.745Z,66.90
2018-05-18T05:57:07.187Z,66.80
2018-05-18T06:02:09.638Z,66.90
2018-05-18T06:07:12.117Z,67.00
2018-05-18T06:12:14.564Z,67.30
2018-05-18T06:17:17.715Z,67.20
2018-05-18T06:22:20.210Z,67.60
2018-05-18T06:27:23.084Z,66.40
2018-05-18T06:32:26.352Z,65.90
2018-05-18T06:37:28.873Z,65.70
2018-05-18T06:42:31.682Z,66.10
2018-05-18T06:47:34.938Z,65.20
2018-05-18T06:52:37.382Z,65.20
2018-05-18T06:57:39.832Z,65.20
2018-05-18T07:02:48.756Z,65.40
2018-05-18T07:07:51.259Z,65.00
2018-05-18T07:12:53.719Z,65.40
2018-05-18T07:17:56.939Z,64.90
2018-05-18T07:23:17.035Z,64.70
2018-05-18T07:28:20.329Z,64.60
2018-05-18T07:33:23.525Z,64.20
2018-05-18T07:38:25.986Z,64.40
2018-05-18T07:43:28.434Z,64.30
2018-05-18T07:48:31.664Z,64.10
2018-05-18T07:53:34.120Z,64.10
2018-05-18T07:58:36.664Z,64.00
2018-05-18T08:03:39.101Z,63.10
2018-05-18T08:08:41.657Z,62.70
2018-05-18T08:13:44.132Z,62.70
2018-05-18T08:18:46.577Z,62.50
2018-05-18T08:23:49.027Z,61.70
2018-05-18T08:29:03.558Z,61.50
2018-05-18T08:34:06.005Z,60.80
2018-05-18T08:39:08.467Z,60.20
2018-05-18T08:44:11.673Z,59.60
2018-05-18T08:49:14.907Z,59.40
2018-05-18T08:54:17.361Z,59.40
2018-05-18T08:59:20.586Z,58.60
2018-05-18T09:04:23.819Z,58.10
2018-05-18T09:09:26.290Z,58.00
2018-05-18T09:14:29.535Z,57.70
2018-05-18T09:19:32.001Z,57.60
2018-05-18T09:24:35.217Z,56.40
2018-05-18T09:29:37.664Z,57.10
2018-05-18T09:34:40.205Z,56.40
2018-05-18T09:39:42.699Z,56.50
2018-05-18T09:44:45.141Z,56.20
2018-05-18T09:49:47.606Z,55.80
2018-05-18T09:54:50.184Z,55.80
2018-05-18T09:59:53.290Z,54.00
2018-05-18T10:04:55.737Z,53.90
2018-05-18T10:09:58.189Z,54.00
2018-05-18T10:15:00.650Z,53.60
2018-05-18T10:20:03.156Z,53.20
2018-05-18T10:25:05.617Z,53.10
2018-05-18T10:30:08.067Z,52.60
2018-05-18T10:35:10.517Z,52.80
2018-05-18T10:40:13.733Z,52.20
2018-05-18T10:45:16.325Z,52.20
2018-05-18T10:50:18.733Z,52.90
2018-05-18T10:55:21.233Z,51.50
2018-05-18T11:00:23.678Z,52.10
2018-05-18T11:05:26.942Z,52.00
2018-05-18T11:10:30.122Z,51.30
2018-05-18T11:15:32.640Z,51.30
2018-05-18T11:20:35.081Z,51.30
2018-05-18T11:25:37.624Z,50.90
2018-05-18T11:30:40.077Z,50.60
2018-05-18T11:35:43.300Z,49.80
2018-05-18T11:40:46.518Z,49.40
2018-05-18T11:45:48.969Z,49.40
2018-05-18T11:50:51.421Z,49.80
2018-05-18T11:55:53.880Z,49.80
2018-05-18T12:00:57.293Z,50.30
2018-05-18T12:06:00.518Z,51.20
2018-05-18T12:14:36.841Z,49.80
2018-05-18T12:19:52.032Z,49.80
2018-05-18T12:24:54.654Z,48.90
2018-05-18T12:29:57.110Z,48.70
2018-05-18T12:34:59.565Z,48.70
2018-05-18T12:40:02.781Z,49.10
2018-05-18T12:45:05.317Z,49.10
2018-05-18T12:50:07.813Z,48.30
2018-05-18T12:55:10.318Z,47.90
2018-05-18T13:00:12.786Z,48.60
2018-05-18T13:05:15.988Z,47.40
2018-05-18T13:10:19.222Z,47.10
2018-05-18T13:15:21.680Z,47.00
2018-05-18T13:20:24.897Z,46.90
2018-05-18T13:25:28.130Z,46.90
2018-05-18T13:30:30.579Z,46.80
2018-05-18T13:35:33.013Z,48.10
2018-05-18T13:40:35.465Z,48.10
2018-05-18T13:45:37.914Z,47.50
2018-05-18T13:50:40.385Z,46.90
2018-05-18T13:55:42.868Z,47.10
2018-05-18T14:00:46.070Z,47.00
2018-05-18T14:05:49.289Z,46.70
2018-05-18T14:10:52.508Z,47.50
2018-05-18T14:15:55.009Z,47.50
2018-05-18T14:20:57.661Z,48.00
2018-05-18T14:26:00.914Z,47.40
2018-05-18T14:31:03.374Z,47.30
2018-05-18T14:36:05.902Z,47.30
2018-05-18T14:41:08.396Z,47.90
2018-05-18T14:46:10.837Z,47.20
2018-05-18T14:51:13.372Z,46.90
2018-05-18T14:56:15.730Z,46.60
2018-05-18T15:01:18.194Z,46.20
2018-05-18T15:06:20.651Z,45.60
2018-05-18T15:11:23.155Z,45.90
2018-05-18T15:16:25.684Z,46.00
2018-05-18T15:21:28.822Z,45.60
2018-05-18T15:26:32.307Z,45.30
2018-05-18T15:31:34.763Z,45.20
2018-05-18T15:36:37.216Z,45.60
2018-05-18T15:41:39.685Z,45.40
2018-05-18T15:46:42.133Z,45.60
2018-05-18T15:51:44.653Z,45.90
2018-05-18T15:56:47.201Z,45.80
2018-05-18T16:01:50.410Z,46.20
2018-05-18T16:06:53.641Z,45.40
2018-05-18T16:11:56.089Z,45.30
2018-05-18T16:16:58.533Z,44.60
2018-05-18T16:22:00.981Z,44.70
2018-05-18T16:27:04.192Z,44.70
2018-05-18T16:32:06.637Z,44.70
2018-05-18T16:37:09.113Z,45.90
2018-05-18T16:42:11.609Z,44.40
2018-05-18T16:47:14.082Z,44.60
2018-05-18T16:52:17.318Z,44.70
2018-05-18T16:57:19.753Z,44.50
2018-05-18T17:02:22.197Z,45.00
2018-05-18T17:07:24.691Z,45.60
2018-05-18T17:12:27.128Z,45.70
2018-05-18T17:17:29.577Z,46.00
2018-05-18T17:22:32.029Z,45.90
2018-05-18T17:27:35.277Z,44.30
2018-05-18T17:32:37.764Z,44.80
2018-05-18T17:37:40.218Z,45.20
2018-05-18T17:42:42.674Z,45.90
2018-05-18T17:47:45.160Z,45.50
2018-05-18T17:52:47.638Z,46.10
2018-05-18T17:57:50.138Z,46.40
2018-05-18T18:02:52.621Z,46.50
2018-05-18T18:07:55.101Z,46.60
2018-05-18T18:12:57.609Z,46.90
2018-05-18T18:18:00.102Z,47.30
2018-05-18T18:23:02.554Z,47.50
2018-05-18T18:28:05.761Z,47.90
2018-05-18T18:33:08.313Z,47.90
2018-05-18T18:38:10.793Z,48.10
2018-05-18T18:43:13.243Z,48.60
2018-05-18T18:48:15.782Z,48.60
2018-05-18T18:53:18.269Z,48.60
2018-05-18T18:58:20.838Z,48.80
2018-05-18T19:03:24.046Z,49.30
2018-05-18T19:08:27.289Z,50.10
2018-05-18T19:13:29.709Z,49.50
2018-05-18T19:18:32.167Z,50.10
2018-05-18T19:23:35.372Z,51.10
2018-05-18T19:28:37.825Z,51.00
2018-05-18T19:33:40.277Z,51.60
2018-05-18T19:38:42.739Z,52.30
2018-05-18T19:43:45.975Z,54.20
2018-05-18T19:48:48.462Z,54.10
2018-05-18T19:53:50.952Z,54.70
2018-05-18T19:58:53.398Z,55.60
2018-05-18T20:03:55.942Z,56.20
2018-05-18T20:08:58.385Z,57.00
2018-05-18T20:14:00.925Z,57.50
2018-05-18T20:19:03.370Z,58.30
2018-05-18T20:24:05.818Z,58.80
2018-05-18T20:29:08.276Z,58.90
2018-05-18T20:34:11.512Z,60.10
2018-05-18T20:39:13.961Z,60.20
2018-05-18T20:44:16.414Z,59.60
2018-05-18T20:49:18.889Z,60.00
2018-05-18T20:54:21.336Z,61.00
2018-05-18T20:59:23.877Z,62.10
2018-05-18T21:04:26.377Z,62.80
2018-05-18T21:09:28.869Z,62.90
2018-05-18T21:14:31.321Z,63.30
2018-05-18T21:19:33.769Z,63.90
2018-05-18T21:24:36.250Z,64.70
2018-05-18T21:29:38.733Z,64.90
2018-05-18T21:34:41.229Z,65.40
2018-05-18T21:39:43.673Z,65.70
2018-05-18T21:44:46.118Z,65.80
2018-05-18T21:49:48.560Z,66.00
2018-05-18T21:54:51.111Z,66.40
2018-05-18T21:59:53.558Z,67.50
2018-05-18T22:04:56.100Z,66.80
2018-05-18T22:09:58.532Z,66.70
2018-05-18T22:15:00.982Z,66.80
2018-05-18T22:20:03.443Z,67.00
2018-05-18T22:25:06.657Z,67.30
2018-05-18T22:30:09.871Z,67.00
2018-05-18T22:35:13.089Z,66.60
2018-05-18T22:40:15.549Z,66.60
2018-05-18T22:45:17.988Z,66.50
2018-05-18T22:50:20.449Z,66.30
2018-05-18T22:55:23.659Z,66.00
2018-05-18T23:00:26.889Z,66.10
2018-05-18T23:05:29.333Z,66.10
2018-05-18T23:10:31.790Z,66.10
2018-05-18T23:15:34.264Z,66.00
2018-05-18T23:20:36.709Z,65.70
2018-05-18T23:25:40.758Z,65.50
2018-05-18T23:30:43.892Z,65.50
2018-05-18T23:35:46.341Z,65.40
2018-05-18T23:40:49.559Z,65.50
2018-05-18T23:45:52.004Z,65.50
2018-05-18T23:50:54.486Z,65.70
2018-05-18T23:55:56.977Z,65.60
